Time;durP1;ratioP1;P1;durP2;ratioP2;P2;SDS_P1;SDS_P2;PMS_P1;PMS_P2;Temp;Humidity;BMP_temperature;BMP_pressure;BME280_temperature;BME280_humidity;BME280_pressure;Samples;Min_cycle;Max_cycle;Signal;HPM_P1;HPM_P2
2022/04/11 00:02:51;;;;;;;11.37;4.47;;;;;;;0.56;97.58;100703.77;3615523;80;97804;-87
2022/04/11 00:07:53;;;;;;;9.47;3.20;;;;;;;0.57;98.06;100703.23;3608023;80;99209;-87
2022/04/11 00:13:05;;;;;;;7.80;2.80;;;;;;;0.59;98.37;100701.82;3615258;80;32227;-87
2022/04/11 00:18:07;;;;;;;7.53;2.52;;;;;;;0.64;98.44;100708.48;3614339;80;99042;-88
2022/04/11 00:23:08;;;;;;;11.93;3.42;;;;;;;0.71;98.86;100713.48;3633626;79;98389;-86
2022/04/11 00:28:10;;;;;;;7.10;2.47;;;;;;;0.81;99.74;100726.24;3616981;80;99012;-87
2022/04/11 00:33:11;;;;;;;9.93;2.83;;;;;;;0.92;99.69;100733.03;3581570;80;97688;-87
2022/04/11 00:38:13;;;;;;;13.70;4.37;;;;;;;1.01;99.79;100733.11;3586832;80;98818;-88
2022/04/11 00:43:38;;;;;;;9.30;2.53;;;;;;;1.05;99.96;100725.41;3602626;80;31636;-87
2022/04/11 00:48:40;;;;;;;8.40;2.55;;;;;;;1.12;100.00;100718.20;3585847;80;98238;-86
2022/04/11 00:53:44;;;;;;;7.70;2.60;;;;;;;1.18;99.80;100721.86;3630740;80;98436;-86
2022/04/11 00:58:47;;;;;;;9.88;2.50;;;;;;;1.27;99.54;100728.13;3626742;80;98419;-87
2022/04/11 01:03:47;;;;;;;10.43;4.40;;;;;;;1.35;99.31;100729.30;3634363;79;98391;-87
2022/04/11 01:08:49;;;;;;;10.37;4.93;;;;;;;1.41;98.98;100729.41;3601707;80;98893;-87
2022/04/11 01:13:51;;;;;;;8.93;4.43;;;;;;;1.48;99.47;100723.02;3593272;80;98616;-87
2022/04/11 01:18:52;;;;;;;11.07;3.87;;;;;;;1.47;99.25;100720.85;3604951;80;97890;-87
2022/04/11 01:23:52;;;;;;;8.37;2.67;;;;;;;1.51;99.01;100728.63;3637640;80;99569;-87
2022/04/11 01:28:55;;;;;;;8.23;3.03;;;;;;;1.57;98.81;100729.28;3612126;80;98409;-87
2022/04/11 01:33:57;;;;;;;8.53;2.65;;;;;;;1.60;98.40;100721.89;3623746;80;98999;-87
2022/04/11 01:38:58;;;;;;;10.20;3.07;;;;;;;1.64;98.17;100725.59;3627323;80;98424;-88
2022/04/11 01:43:58;;;;;;;7.50;2.37;;;;;;;1.69;98.25;100729.53;3593146;80;99029;-87
2022/04/11 01:49:00;;;;;;;12.60;3.17;;;;;;;1.70;98.23;100737.91;3611738;80;31637;-87
2022/04/11 01:54:01;;;;;;;14.50;4.07;;;;;;;1.72;97.88;100741.92;3572271;80;98787;-87
2022/04/11 01:59:02;;;;;;;7.10;2.70;;;;;;;1.75;97.95;100743.22;3640344;80;98697;-88
2022/04/11 02:04:03;;;;;;;5.83;2.17;;;;;;;1.79;97.78;100746.34;3634439;80;98510;-88
2022/04/11 02:09:05;;;;;;;9.65;3.10;;;;;;;1.79;97.81;100750.41;3630727;80;98119;-89
2022/04/11 02:14:07;;;;;;;8.03;2.72;;;;;;;1.79;97.87;100755.02;3629484;80;98571;-87
2022/04/11 02:19:08;;;;;;;8.93;3.10;;;;;;;1.79;98.47;100757.20;3630932;80;31597;-88
2022/04/11 02:24:09;;;;;;;7.77;2.83;;;;;;;1.80;98.48;100759.36;3636959;80;98690;-88
2022/04/11 02:29:10;;;;;;;9.77;3.30;;;;;;;1.82;98.44;100756.59;3657325;80;98616;-88
2022/04/11 02:34:12;;;;;;;6.30;2.87;;;;;;;1.85;98.57;100757.84;3639505;80;98123;-88
2022/04/11 02:39:13;;;;;;;12.37;3.47;;;;;;;1.87;98.58;100758.36;3669349;80;98892;-87
2022/04/11 02:44:14;;;;;;;11.80;3.40;;;;;;;1.89;98.77;100752.86;3637345;80;98619;-88
2022/04/11 02:49:15;;;;;;;7.53;2.70;;;;;;;1.90;99.06;100758.53;3650874;80;31619;-87
2022/04/11 02:54:16;;;;;;;7.33;2.55;;;;;;;1.88;99.08;100751.27;3614904;80;98820;-87
2022/04/11 02:59:17;;;;;;;9.45;3.10;;;;;;;1.90;99.26;100751.75;3630458;80;98253;-87
2022/04/11 03:04:18;;;;;;;6.27;2.20;;;;;;;1.93;99.53;100757.11;3619377;80;98532;-87
2022/04/11 03:09:20;;;;;;;14.80;4.00;;;;;;;1.94;99.32;100759.52;3627172;80;98469;-87
2022/04/11 03:14:21;;;;;;;6.90;2.85;;;;;;;1.97;99.45;100770.31;3623951;80;98964;-88
2022/04/11 03:19:22;;;;;;;11.33;2.47;;;;;;;1.97;99.43;100761.59;3639515;80;31706;-88
2022/04/11 03:24:22;;;;;;;8.18;2.90;;;;;;;1.99;99.60;100751.79;3652132;80;98594;-89
2022/04/11 03:29:23;;;;;;;8.17;2.33;;;;;;;2.05;99.31;100765.47;3636128;80;98291;-88
2022/04/11 03:34:24;;;;;;;7.83;2.30;;;;;;;2.08;99.54;100774.36;3634766;80;98514;-88
2022/04/11 03:39:26;;;;;;;10.90;3.53;;;;;;;2.10;99.55;100777.00;3633233;80;98444;-88
2022/04/11 03:44:27;;;;;;;8.93;2.63;;;;;;;2.12;99.36;100766.63;3636477;80;98655;-89
2022/04/11 03:49:28;;;;;;;9.87;2.67;;;;;;;2.16;99.34;100775.75;3632471;80;34822;-89
2022/04/11 03:54:29;;;;;;;32.57;9.93;;;;;;;2.16;99.50;100770.86;3642355;80;98653;-89
2022/04/11 03:59:29;;;;;;;88.03;30.00;;;;;;;2.15;99.29;100775.52;3617576;80;98541;-89
2022/04/11 04:04:30;;;;;;;47.00;16.12;;;;;;;2.18;99.27;100772.16;3621041;80;98900;-89
2022/04/11 04:09:31;;;;;;;39.57;10.93;;;;;;;2.20;99.22;100773.98;3615830;80;98769;-89
2022/04/11 04:14:34;;;;;;;29.48;8.45;;;;;;;2.23;99.24;100779.35;3599056;80;99293;-90
2022/04/11 04:19:35;;;;;;;17.93;6.00;;;;;;;2.24;99.20;100786.41;3597054;81;34889;-89
2022/04/11 04:24:36;;;;;;;16.50;4.97;;;;;;;2.24;99.19;100792.63;3611978;80;98525;-89
2022/04/11 04:29:37;;;;;;;11.67;4.60;;;;;;;2.26;99.21;100788.25;3628280;80;98811;-89
2022/04/11 04:34:38;;;;;;;9.73;4.20;;;;;;;2.26;99.13;100793.13;3607163;80;98674;-90
2022/04/11 04:39:39;;;;;;;9.63;3.73;;;;;;;2.26;99.06;100799.11;3586979;80;98531;-89
2022/04/11 04:44:41;;;;;;;10.17;3.80;;;;;;;2.25;99.17;100799.65;3588366;80;98470;-89
2022/04/11 04:49:43;;;;;;;10.97;4.37;;;;;;;2.25;99.16;100801.59;3588593;80;99292;-84
2022/04/11 04:54:44;;;;;;;13.03;4.00;;;;;;;2.25;99.19;100807.02;3474744;83;98652;-90
2022/04/11 04:59:45;;;;;;;11.37;3.73;;;;;;;2.24;99.15;100814.34;3582626;81;98575;-89
2022/04/11 05:04:45;;;;;;;10.87;4.63;;;;;;;2.29;99.29;100818.86;3472045;83;98800;-88
2022/04/11 05:09:46;;;;;;;10.95;4.10;;;;;;;2.34;99.42;100819.52;3571012;81;98695;-88
2022/04/11 05:14:47;;;;;;;12.70;4.07;;;;;;;2.37;99.43;100825.69;3590469;79;98710;-87
2022/04/11 05:19:48;;;;;;;15.03;4.20;;;;;;;2.44;99.67;100830.66;3605482;81;97637;-86
2022/04/11 05:24:49;;;;;;;19.30;4.83;;;;;;;2.48;99.63;100825.66;3613719;81;98488;-87
2022/04/11 05:29:50;;;;;;;9.00;4.40;;;;;;;2.51;99.70;100821.52;3616688;81;98525;-82
2022/04/11 05:34:51;;;;;;;14.47;3.93;;;;;;;2.53;99.66;100828.23;3602241;79;98612;-83
2022/04/11 05:39:52;;;;;;;15.70;4.83;;;;;;;2.60;99.64;100829.94;3592977;80;98939;-83
2022/04/11 05:44:53;;;;;;;10.08;4.53;;;;;;;2.69;99.82;100829.95;3584224;81;99092;-82
2022/04/11 05:49:54;;;;;;;17.23;5.13;;;;;;;2.77;99.75;100835.42;3569516;81;98557;-83
2022/04/11 05:54:55;;;;;;;10.67;4.47;;;;;;;2.87;99.83;100838.40;3563635;80;98286;-83
2022/04/11 05:59:56;;;;;;;10.90;3.40;;;;;;;3.02;99.93;100845.57;3602019;80;99027;-83
2022/04/11 06:04:56;;;;;;;9.15;3.58;;;;;;;3.22;99.91;100848.25;3593989;80;98726;-83
2022/04/11 06:09:59;;;;;;;13.30;5.50;;;;;;;3.39;99.20;100845.55;3573147;80;99016;-84
2022/04/11 06:15:00;;;;;;;7.50;2.73;;;;;;;3.57;99.35;100856.66;3597568;80;99051;-84
2022/04/11 06:20:02;;;;;;;9.67;3.33;;;;;;;3.75;98.90;100854.98;3611864;80;98942;-83
2022/04/11 06:25:05;;;;;;;10.38;3.55;;;;;;;3.98;98.47;100856.98;3597222;80;98191;-84
2022/04/11 06:30:07;;;;;;;11.30;3.33;;;;;;;4.12;97.45;100857.02;3591310;80;98862;-83
2022/04/11 06:35:09;;;;;;;13.95;4.40;;;;;;;4.27;98.06;100859.21;3580683;80;98902;-83
2022/04/11 06:40:11;;;;;;;13.47;4.37;;;;;;;4.40;96.87;100863.68;3599221;80;98977;-83
2022/04/11 06:45:14;;;;;;;7.55;3.52;;;;;;;4.54;97.18;100863.48;3589725;80;99069;-83
2022/04/11 06:50:15;;;;;;;14.30;4.75;;;;;;;4.71;96.12;100862.86;3597647;80;98970;-82
2022/04/11 06:55:16;;;;;;;10.68;3.58;;;;;;;4.85;96.92;100858.55;3608008;80;98375;-82
2022/04/11 07:00:17;;;;;;;10.60;3.33;;;;;;;4.99;96.96;100867.28;3614577;80;98689;-82
2022/04/11 07:05:18;;;;;;;9.33;3.37;;;;;;;5.20;96.47;100864.03;3599197;80;98969;-82
2022/04/11 07:10:19;;;;;;;8.43;3.52;;;;;;;5.31;94.20;100861.96;3605060;80;98938;-82
2022/04/11 07:15:20;;;;;;;7.60;3.23;;;;;;;5.41;94.19;100868.95;3607339;80;98548;-82
2022/04/11 07:20:21;;;;;;;11.63;4.00;;;;;;;5.57;94.95;100861.19;3618144;80;99041;-83
2022/04/11 07:25:24;;;;;;;13.27;3.90;;;;;;;5.78;93.25;100861.98;3607937;80;98297;-82
2022/04/11 07:30:25;;;;;;;14.60;4.43;;;;;;;5.86;92.21;100869.91;3612496;80;98975;-83
2022/04/11 07:35:26;;;;;;;11.33;3.93;;;;;;;5.96;91.62;100864.84;3607545;80;98847;-83
2022/04/11 07:40:29;;;;;;;10.83;4.30;;;;;;;6.04;91.68;100861.78;3608003;80;99112;-83
2022/04/11 07:45:29;;;;;;;9.08;3.75;;;;;;;6.07;90.19;100862.48;3610890;80;99060;-82
2022/04/11 07:50:30;;;;;;;9.60;4.47;;;;;;;6.08;89.72;100869.55;3611095;80;99011;-82
2022/04/11 07:55:33;;;;;;;10.25;3.55;;;;;;;6.09;89.72;100877.97;3609986;80;98673;-82
2022/04/11 08:00:34;;;;;;;10.82;3.95;;;;;;;6.21;89.78;100880.17;3591579;81;98769;-82
2022/04/11 08:05:35;;;;;;;10.77;4.47;;;;;;;6.30;89.10;100885.00;3589862;80;98895;-83
2022/04/11 08:10:37;;;;;;;10.20;4.23;;;;;;;6.37;88.58;100882.51;3603058;81;99093;-82
2022/04/11 08:15:38;;;;;;;11.20;4.40;;;;;;;6.51;89.57;100885.74;3579023;81;99165;-83
2022/04/11 08:20:39;;;;;;;12.33;4.73;;;;;;;6.67;87.84;100889.98;3581851;80;98931;-84
2022/04/11 08:25:40;;;;;;;14.33;4.40;;;;;;;6.71;87.66;100878.01;3553139;81;98313;-81
2022/04/11 08:30:41;;;;;;;10.00;3.70;;;;;;;6.80;86.77;100888.29;3595570;80;98911;-83
2022/04/11 08:35:42;;;;;;;8.73;3.53;;;;;;;6.99;86.29;100905.52;3595598;80;98945;-83
2022/04/11 08:40:45;;;;;;;10.83;3.50;;;;;;;7.04;85.07;100897.09;3577246;81;98529;-82
2022/04/11 08:45:46;;;;;;;9.77;3.37;;;;;;;7.11;85.04;100910.99;3582005;81;99126;-83
2022/04/11 08:50:48;;;;;;;10.50;4.37;;;;;;;7.12;84.96;100898.90;3591297;81;99046;-82
2022/04/11 08:55:50;;;;;;;10.15;3.55;;;;;;;7.21;84.77;100904.48;3581131;81;99018;-83
2022/04/11 09:00:52;;;;;;;11.57;4.58;;;;;;;7.27;84.19;100908.61;3565195;81;31000;-82
2022/04/11 09:06:08;;;;;;;7.53;3.45;;;;;;;7.23;83.89;100907.69;3541643;81;98973;-83
2022/04/11 09:11:10;;;;;;;11.57;3.60;;;;;;;7.35;83.86;100907.67;3534003;81;98669;-82
2022/04/11 09:16:10;;;;;;;11.83;4.00;;;;;;;7.47;82.80;100900.03;3547369;81;99220;-83
2022/04/11 09:21:11;;;;;;;9.20;3.13;;;;;;;7.57;83.45;100900.34;3510830;81;99120;-81
2022/04/11 09:26:22;;;;;;;7.27;3.13;;;;;;;7.74;82.28;100893.81;3549765;81;98741;-82
2022/04/11 09:31:23;;;;;;;7.10;2.72;;;;;;;7.94;82.06;100896.38;3525320;81;32966;-82
2022/04/11 09:36:47;;;;;;;10.33;2.97;;;;;;;8.07;79.54;100898.50;3552796;81;98831;-82
2022/04/11 09:41:50;;;;;;;9.33;2.87;;;;;;;8.13;79.81;100894.36;3545122;80;98611;-82
2022/04/11 09:47:01;;;;;;;12.93;4.10;;;;;;;8.21;78.61;100892.06;3540240;81;99113;-82
2022/04/11 09:52:14;;;;;;;8.48;2.70;;;;;;;8.25;79.05;100891.03;3557850;80;99173;-81
2022/04/11 09:57:17;;;;;;;7.67;3.40;;;;;;;8.34;77.67;100884.80;3534910;80;98481;-82
2022/04/11 10:02:18;;;;;;;8.87;4.17;;;;;;;8.38;77.74;100887.06;3540309;81;98957;-82
2022/04/11 10:07:20;;;;;;;7.67;3.00;;;;;;;8.38;77.82;100886.26;3499071;81;98623;-82
2022/04/11 10:12:23;;;;;;;9.17;3.47;;;;;;;8.28;77.95;100882.67;3532327;82;98353;-83
2022/04/11 10:17:23;;;;;;;8.65;3.22;;;;;;;8.34;76.88;100879.91;3543948;80;98714;-82
2022/04/11 10:22:28;;;;;;;6.30;3.00;;;;;;;8.40;77.91;100880.64;3532039;82;98951;-82
2022/04/11 10:27:29;;;;;;;9.13;2.62;;;;;;;8.60;77.84;100874.70;3529504;79;98888;-82
2022/04/11 10:32:31;;;;;;;8.70;2.23;;;;;;;8.83;78.33;100876.48;3527167;81;98953;-81
2022/04/11 10:37:43;;;;;;;5.50;2.10;;;;;;;9.10;76.35;100874.81;3516891;82;97974;-82
2022/04/11 10:43:08;;;;;;;7.92;2.27;;;;;;;9.30;74.08;100877.25;3517752;82;98107;-82
2022/04/11 10:48:10;;;;;;;6.43;2.30;;;;;;;9.71;72.58;100871.09;3506151;82;98258;-83
2022/04/11 10:53:24;;;;;;;9.80;2.83;;;;;;;10.13;71.25;100867.07;3526437;82;98338;-81
2022/04/11 10:58:51;;;;;;;8.60;2.12;;;;;;;10.35;68.15;100864.97;3543388;80;98845;-82
2022/04/11 11:04:00;;;;;;;9.98;2.30;;;;;;;10.53;68.82;100861.36;3521214;80;98755;-82
2022/04/11 11:09:18;;;;;;;8.78;2.27;;;;;;;10.60;67.09;100856.58;3553078;81;98888;-80
2022/04/11 11:14:41;;;;;;;11.08;2.60;;;;;;;10.61;67.89;100858.97;3525042;81;98838;-79
2022/04/11 11:20:04;;;;;;;11.50;3.00;;;;;;;10.53;68.62;100850.35;3504268;81;30607;-80
2022/04/11 11:25:19;;;;;;;8.33;2.50;;;;;;;10.50;67.67;100846.97;3536586;81;98923;-80
2022/04/11 11:30:21;;;;;;;6.28;2.52;;;;;;;10.26;67.89;100859.67;3558650;81;99094;-81
2022/04/11 11:35:23;;;;;;;6.63;2.20;;;;;;;10.10;68.32;100854.88;3553910;81;99058;-81
2022/04/11 11:40:24;;;;;;;6.33;2.12;;;;;;;9.92;68.41;100858.39;3557666;81;98617;-80
2022/04/11 11:45:27;;;;;;;6.40;2.20;;;;;;;9.83;69.53;100859.17;3554051;81;98747;-80
2022/04/11 11:50:29;;;;;;;7.33;2.70;;;;;;;9.83;69.71;100849.55;3558431;81;98386;-81
2022/04/11 11:55:29;;;;;;;9.95;2.75;;;;;;;9.76;69.32;100859.03;3551425;81;98647;-80
2022/04/11 12:00:34;;;;;;;7.20;2.93;;;;;;;9.69;71.27;100854.17;3551888;80;98424;-80
2022/04/11 12:05:38;;;;;;;9.75;2.30;;;;;;;9.82;72.25;100843.84;3545296;80;98836;-81
2022/04/11 12:10:44;;;;;;;8.05;2.67;;;;;;;9.93;70.24;100851.13;3560463;81;98443;-80
2022/04/11 12:15:45;;;;;;;7.85;1.75;;;;;;;9.92;67.46;100861.14;3539470;81;98407;-79
2022/04/11 12:20:47;;;;;;;6.50;2.17;;;;;;;9.90;67.93;100864.81;3560628;81;98501;-81
2022/04/11 12:25:52;;;;;;;5.65;1.90;;;;;;;10.03;67.70;100866.28;3531596;81;98096;-81
2022/04/11 12:31:17;;;;;;;7.22;2.02;;;;;;;9.93;67.96;100856.63;3553492;81;98550;-80
2022/04/11 12:36:27;;;;;;;5.33;2.17;;;;;;;9.94;68.50;100861.00;3548102;80;98829;-80
2022/04/11 12:41:37;;;;;;;9.95;2.80;;;;;;;9.83;68.05;100855.05;3563456;80;98467;-80
2022/04/11 12:46:58;;;;;;;7.45;2.83;;;;;;;9.88;68.00;100841.02;3549146;81;98557;-80
2022/04/11 12:52:04;;;;;;;6.58;2.20;;;;;;;10.07;67.66;100836.90;3552563;81;98499;-79
2022/04/11 13:02:18;;;;;;;19.02;5.25;;;;;;;10.63;66.99;100834.61;3608679;79;32459;-76
2022/04/11 13:07:22;;;;;;;12.10;2.90;;;;;;;10.77;64.78;100824.42;3582303;80;98891;-74
2022/04/11 13:12:23;;;;;;;8.35;2.70;;;;;;;10.76;65.42;100825.59;3605003;80;98883;-76
2022/04/11 13:22:44;;;;;;;7.33;1.80;;;;;;;10.79;62.89;100829.77;3591100;80;99055;-76
2022/04/11 13:27:46;;;;;;;5.67;1.87;;;;;;;10.90;60.36;100833.49;3589219;80;99254;-75
2022/04/11 13:32:46;;;;;;;5.83;1.93;;;;;;;10.72;61.07;100821.41;3579011;80;99157;-76
2022/04/11 13:37:49;;;;;;;10.03;2.23;;;;;;;10.82;62.80;100826.86;3550648;80;98468;-75
2022/04/11 13:42:54;;;;;;;10.68;4.45;;;;;;;10.85;61.99;100829.67;3582331;80;98956;-78
2022/04/11 13:47:55;;;;;;;5.65;2.17;;;;;;;10.88;60.40;100837.78;3590147;80;99313;-75
2022/04/11 13:52:57;;;;;;;4.63;1.70;;;;;;;10.77;62.55;100836.23;3580514;80;99129;-75
2022/04/11 13:57:58;;;;;;;7.03;2.50;;;;;;;10.65;62.93;100824.62;3580441;80;98927;-75
2022/04/11 14:03:02;;;;;;;6.13;2.13;;;;;;;10.71;62.42;100838.28;3571761;81;99447;-75
2022/04/11 14:08:04;;;;;;;9.38;2.60;;;;;;;10.67;62.35;100823.66;3536579;81;98783;-75
2022/04/11 14:13:06;;;;;;;5.55;2.10;;;;;;;10.72;63.12;100820.03;3580716;81;98891;-75
2022/04/11 14:18:07;;;;;;;8.23;2.40;;;;;;;10.73;63.14;100813.35;3540859;81;98822;-75
2022/04/11 14:23:08;;;;;;;6.42;2.10;;;;;;;10.72;61.58;100811.77;3572615;80;98755;-75
2022/04/11 14:28:09;;;;;;;5.10;1.57;;;;;;;10.63;61.11;100806.31;3563023;80;99085;-76
2022/04/11 14:33:14;;;;;;;7.30;2.40;;;;;;;10.64;60.26;100796.28;3569348;80;98990;-76
2022/04/11 14:38:15;;;;;;;5.85;1.95;;;;;;;10.74;59.41;100809.43;3568246;80;98811;-76
2022/04/11 14:43:17;;;;;;;8.28;2.37;;;;;;;10.76;60.87;100804.94;3579992;80;98635;-75
2022/04/11 14:48:18;;;;;;;5.78;1.92;;;;;;;10.85;60.86;100793.88;3563720;81;98849;-78
2022/04/11 14:53:19;;;;;;;7.53;2.07;;;;;;;10.88;60.95;100791.77;3574684;80;98792;-75
2022/04/11 14:58:22;;;;;;;5.13;1.77;;;;;;;10.82;60.46;100790.50;3571686;80;98841;-76
2022/04/11 15:03:24;;;;;;;5.80;1.52;;;;;;;10.75;60.25;100788.98;3566055;81;99238;-74
2022/04/11 15:08:28;;;;;;;6.93;1.87;;;;;;;10.70;60.18;100778.32;3562839;80;98807;-74
2022/04/11 15:13:31;;;;;;;4.08;1.60;;;;;;;10.77;60.40;100788.63;3566059;81;98639;-74
2022/04/11 15:18:33;;;;;;;5.53;1.67;;;;;;;10.71;59.63;100782.66;3558658;81;98725;-73
2022/04/11 15:23:36;;;;;;;3.87;1.52;;;;;;;10.75;59.66;100787.61;3566169;81;98894;-73
2022/04/11 15:28:37;;;;;;;3.70;1.55;;;;;;;10.72;59.06;100776.55;3560627;81;98781;-76
2022/04/11 15:33:38;;;;;;;6.03;1.90;;;;;;;10.63;59.19;100778.19;3565183;81;98083;-75
2022/04/11 15:38:39;;;;;;;4.57;1.60;;;;;;;10.57;58.92;100774.75;3559394;81;98712;-75
2022/04/11 15:43:43;;;;;;;5.27;1.73;;;;;;;10.55;59.70;100782.00;3564265;80;98610;-74
2022/04/11 15:48:44;;;;;;;4.62;1.40;;;;;;;10.47;58.65;100782.25;3571906;80;98740;-75
2022/04/11 15:53:45;;;;;;;5.90;1.83;;;;;;;10.39;59.23;100789.58;3577921;80;98811;-75
2022/04/11 15:58:46;;;;;;;7.33;2.10;;;;;;;10.41;59.90;100780.37;3567059;81;98722;-75
2022/04/11 16:03:47;;;;;;;8.20;2.17;;;;;;;10.34;59.28;100778.07;3577827;80;99079;-75
2022/04/11 16:08:50;;;;;;;7.25;2.95;;;;;;;10.27;59.64;100773.83;3540573;78;98831;-77
2022/04/11 16:13:51;;;;;;;8.27;2.87;;;;;;;10.20;60.40;100784.12;3584063;80;25887;-75
2022/04/11 16:18:55;;;;;;;7.50;2.77;;;;;;;10.07;60.93;100772.28;3563463;81;98916;-76
2022/04/11 16:23:57;;;;;;;25.50;10.43;;;;;;;10.00;61.71;100781.75;3572188;80;98797;-76
2022/04/11 16:29:00;;;;;;;5.40;2.30;;;;;;;10.08;62.31;100778.02;3568914;81;99221;-76
2022/04/11 16:34:01;;;;;;;5.80;2.30;;;;;;;10.03;62.30;100766.69;3569681;80;98875;-76
2022/04/11 16:39:03;;;;;;;12.23;2.93;;;;;;;9.98;62.45;100766.98;3566854;80;98863;-76
2022/04/11 16:44:05;;;;;;;6.37;2.53;;;;;;;10.00;62.62;100770.75;3564206;81;106873;-75
2022/04/11 16:49:06;;;;;;;5.87;2.42;;;;;;;9.95;62.43;100769.09;3576130;80;98577;-76
2022/04/11 16:54:07;;;;;;;6.70;2.45;;;;;;;9.91;63.09;100775.67;3560080;80;98634;-76
2022/04/11 16:59:10;;;;;;;7.90;2.30;;;;;;;9.84;63.23;100774.98;3559120;81;98977;-76
2022/04/11 17:04:13;;;;;;;6.87;2.45;;;;;;;9.79;63.21;100779.95;3548192;81;99300;-74
2022/04/11 17:09:15;;;;;;;6.60;2.13;;;;;;;9.72;63.79;100774.33;3534855;80;98941;-75
2022/04/11 17:14:19;;;;;;;7.00;2.47;;;;;;;9.65;64.22;100789.31;3555827;80;98587;-76
2022/04/11 17:19:23;;;;;;;5.83;2.20;;;;;;;9.56;63.85;100790.91;3547035;81;98353;-75
2022/04/11 17:24:25;;;;;;;6.40;2.80;;;;;;;9.34;63.91;100795.73;3556976;81;98785;-74
2022/04/11 17:29:26;;;;;;;12.37;5.13;;;;;;;9.15;63.59;100797.05;3564916;81;99014;-75
2022/04/11 17:34:32;;;;;;;16.23;7.33;;;;;;;9.06;64.44;100801.94;3530665;81;98843;-75
2022/04/11 17:39:30;;;;;;;23.02;10.13;;;;;;;8.95;64.49;100799.52;3535908;81;99001;-75
2022/04/11 17:44:32;;;;;;;20.50;9.50;;;;;;;8.82;64.73;100806.84;3559676;81;98749;-74
2022/04/11 17:49:33;;;;;;;17.42;8.03;;;;;;;8.72;65.06;100808.19;3563822;81;98326;-75
2022/04/11 17:54:34;;;;;;;16.43;7.40;;;;;;;8.66;65.83;100804.13;3555078;80;98685;-76
2022/04/11 17:59:35;;;;;;;14.57;7.03;;;;;;;8.57;66.33;100816.44;3535351;81;98952;-75
2022/04/11 18:04:38;;;;;;;14.03;7.20;;;;;;;8.35;66.35;100823.30;3556549;81;98753;-75
2022/04/11 18:09:39;;;;;;;28.00;13.15;;;;;;;8.11;66.89;100831.66;3569481;80;98706;-74
2022/04/11 18:14:40;;;;;;;29.87;14.30;;;;;;;8.00;67.21;100838.78;3557165;81;99018;-75
2022/04/11 18:19:42;;;;;;;22.33;10.60;;;;;;;7.80;67.74;100839.00;3568449;81;98506;-74
2022/04/11 18:24:43;;;;;;;26.63;15.87;;;;;;;7.62;68.55;100849.44;3559850;81;99120;-75
2022/04/11 18:35:05;;;;;;;20.30;11.40;;;;;;;7.34;69.79;100860.10;3553988;81;99018;-74
2022/04/11 18:40:08;;;;;;;27.52;14.85;;;;;;;7.17;70.46;100859.80;3566384;81;98896;-74
2022/04/11 18:45:10;;;;;;;25.85;15.95;;;;;;;6.99;70.82;100859.00;3560210;80;98860;-74
2022/04/11 18:50:16;;;;;;;36.98;21.90;;;;;;;6.83;71.06;100859.45;3565355;81;31218;-74
2022/04/11 18:55:19;;;;;;;35.08;22.55;;;;;;;6.65;71.55;100864.92;3549530;81;98867;-74
2022/04/11 19:00:20;;;;;;;37.10;21.60;;;;;;;6.47;71.93;100873.88;3534318;81;98766;-75
2022/04/11 19:05:22;;;;;;;41.83;21.80;;;;;;;6.35;72.38;100870.31;3554507;80;98794;-75
2022/04/11 19:10:27;;;;;;;41.40;25.97;;;;;;;6.25;72.81;100874.84;3545595;81;98862;-75
2022/04/11 19:15:31;;;;;;;48.55;27.62;;;;;;;6.15;73.39;100879.35;3539274;81;98809;-75
2022/04/11 19:20:35;;;;;;;50.23;29.50;;;;;;;6.01;73.56;100878.27;3557734;81;30529;-75
2022/04/11 19:25:37;;;;;;;48.43;27.27;;;;;;;5.84;73.83;100874.91;3548875;81;98542;-75
2022/04/11 19:30:39;;;;;;;49.93;27.07;;;;;;;5.68;74.18;100875.26;3558700;81;99372;-76
2022/04/11 19:35:41;;;;;;;77.43;37.73;;;;;;;5.45;74.82;100872.05;3546230;81;98829;-75
2022/04/11 19:40:43;;;;;;;55.50;31.33;;;;;;;5.35;75.10;100877.89;3558760;82;98827;-75
2022/04/11 19:45:45;;;;;;;59.85;31.70;;;;;;;5.15;75.33;100877.31;3553107;81;98888;-74
2022/04/11 19:50:49;;;;;;;56.37;30.77;;;;;;;5.01;75.51;100871.83;3559802;81;98828;-74
2022/04/11 19:55:50;;;;;;;58.02;32.28;;;;;;;4.87;75.80;100874.00;3559376;81;98763;-76
2022/04/11 20:00:51;;;;;;;55.00;32.73;;;;;;;4.72;76.50;100875.36;3553907;80;99040;-76
2022/04/11 20:05:56;;;;;;;50.03;29.93;;;;;;;4.58;77.03;100877.48;3563154;80;98822;-74
2022/04/11 20:10:57;;;;;;;41.85;24.85;;;;;;;4.43;77.20;100884.03;3573116;80;98790;-77
2022/04/11 20:15:58;;;;;;;42.10;23.60;;;;;;;4.28;76.89;100885.36;3572370;79;99140;-76
2022/04/11 20:20:59;;;;;;;38.17;23.17;;;;;;;4.01;77.66;100881.64;3579950;80;99204;-77
2022/04/11 20:26:00;;;;;;;65.23;34.90;;;;;;;3.79;77.73;100887.80;3575561;80;98719;-77
2022/04/11 20:31:01;;;;;;;81.63;45.33;;;;;;;3.63;78.30;100894.84;3583249;80;98592;-78
2022/04/11 20:36:03;;;;;;;77.37;43.67;;;;;;;3.43;78.73;100897.63;3577949;80;99388;-78
2022/04/11 20:41:05;;;;;;;69.97;38.07;;;;;;;3.37;79.07;100901.63;3572055;80;98802;-77
2022/04/11 20:46:08;;;;;;;74.90;41.93;;;;;;;3.29;79.21;100902.39;3517804;82;98859;-77
2022/04/11 20:51:09;;;;;;;74.42;41.02;;;;;;;3.21;79.77;100903.73;3518591;82;98840;-76
2022/04/11 20:56:10;;;;;;;90.57;46.90;;;;;;;3.05;79.44;100909.36;3519865;82;99096;-75
2022/04/11 21:01:13;;;;;;;92.47;48.87;;;;;;;2.98;79.87;100909.03;3532547;81;98739;-76
2022/04/11 21:06:14;;;;;;;84.83;47.50;;;;;;;2.91;79.89;100911.41;3540294;81;99110;-75
2022/04/11 21:11:15;;;;;;;73.47;42.93;;;;;;;2.83;80.28;100910.81;3545836;80;98910;-76
2022/04/11 21:16:16;;;;;;;75.47;43.43;;;;;;;2.72;80.18;100915.73;3542388;81;98894;-77
2022/04/11 21:21:17;;;;;;;70.27;36.43;;;;;;;2.62;80.61;100916.58;3542453;82;98808;-76
2022/04/11 21:26:18;;;;;;;66.77;37.33;;;;;;;2.55;80.78;100918.37;3537567;81;98558;-77
2022/04/11 21:31:19;;;;;;;61.90;35.77;;;;;;;2.48;81.07;100923.45;3550164;81;99283;-77
2022/04/11 21:36:19;;;;;;;60.90;32.77;;;;;;;2.42;81.12;100930.67;3533277;82;99085;-77
2022/04/11 21:41:20;;;;;;;64.03;32.13;;;;;;;2.35;81.62;100933.82;3546531;80;98854;-77
2022/04/11 21:46:21;;;;;;;51.60;28.17;;;;;;;2.29;81.48;100931.56;3548713;80;99045;-76
2022/04/11 21:51:23;;;;;;;53.63;31.03;;;;;;;2.23;82.06;100939.56;3548371;81;98868;-75
2022/04/11 21:56:24;;;;;;;49.73;27.83;;;;;;;2.13;82.27;100940.62;3537587;81;98804;-77
2022/04/11 22:01:25;;;;;;;56.90;31.07;;;;;;;2.05;82.22;100933.77;3546653;82;99017;-77
2022/04/11 22:06:26;;;;;;;59.93;29.37;;;;;;;2.03;82.52;100934.64;3544936;80;98643;-76
2022/04/11 22:11:27;;;;;;;65.13;32.40;;;;;;;1.95;82.64;100938.89;3545551;80;98826;-76
2022/04/11 22:16:29;;;;;;;62.77;31.20;;;;;;;1.91;82.80;100938.47;3540307;81;98874;-77
2022/04/11 22:21:30;;;;;;;53.73;27.67;;;;;;;1.85;82.94;100930.17;3528151;81;99190;-75
2022/04/11 22:26:33;;;;;;;52.77;26.27;;;;;;;1.76;82.85;100935.52;3540635;81;98920;-77
2022/04/11 22:31:35;;;;;;;46.53;23.30;;;;;;;1.72;83.33;100935.09;3544376;81;98441;-77
2022/04/11 22:36:36;;;;;;;37.15;20.32;;;;;;;1.64;83.41;100941.27;3539062;82;98780;-78
2022/04/11 22:41:37;;;;;;;40.57;22.50;;;;;;;1.55;83.54;100934.95;3531662;79;98920;-78
2022/04/11 22:46:37;;;;;;;35.10;17.60;;;;;;;1.45;83.26;100942.75;3542845;82;98931;-78
2022/04/11 22:51:38;;;;;;;37.30;19.53;;;;;;;1.37;83.46;100941.31;3529240;80;98895;-77
2022/04/11 22:56:39;;;;;;;33.97;18.43;;;;;;;1.33;83.90;100934.34;3541296;82;98707;-78
2022/04/11 23:01:40;;;;;;;40.77;21.07;;;;;;;1.25;84.18;100936.39;3546395;82;98414;-76
2022/04/11 23:06:42;;;;;;;35.90;19.20;;;;;;;1.19;84.14;100924.05;3539417;82;98632;-78
2022/04/11 23:11:43;;;;;;;34.23;19.13;;;;;;;1.14;84.49;100929.58;3545288;81;98811;-75
2022/04/11 23:16:44;;;;;;;33.13;18.45;;;;;;;1.12;84.09;100933.16;3538895;80;99030;-77
2022/04/11 23:21:45;;;;;;;35.27;19.27;;;;;;;1.05;84.36;100927.31;3546929;81;99145;-77
2022/04/11 23:26:46;;;;;;;34.37;17.17;;;;;;;1.00;84.71;100924.70;3541073;80;98766;-77
2022/04/11 23:31:47;;;;;;;34.70;17.53;;;;;;;0.91;85.00;100929.77;3544029;81;31623;-77
2022/04/11 23:36:48;;;;;;;31.42;17.27;;;;;;;0.83;84.92;100927.78;3540600;82;99014;-77
2022/04/11 23:41:49;;;;;;;36.47;19.00;;;;;;;0.78;85.16;100930.58;3547197;82;98437;-77